Time;durP1;ratioP1;P1;durP2;ratioP2;P2;SDS_P1;SDS_P2;PMS_P1;PMS_P2;Temp;Humidity;BMP_temperature;BMP_pressure;BME280_temperature;BME280_humidity;BME280_pressure;Samples;Min_cycle;Max_cycle;Signal;HPM_P1;HPM_P2
2021/12/03 00:02:37;;;;;;;2.25;1.00;;;15.40;42.70;;;;;;20667357;28;20389;-80
2021/12/03 00:12:38;;;;;;;2.55;1.20;;;15.30;42.80;;;;;;20662495;28;20054;-80
2021/12/03 00:22:39;;;;;;;1.50;1.13;;;15.30;42.80;;;;;;20676558;28;20045;-81
2021/12/03 00:32:40;;;;;;;2.70;1.15;;;15.20;42.80;;;;;;20660622;28;20054;-80
2021/12/03 00:42:41;;;;;;;2.20;1.40;;;15.20;42.90;;;;;;20659843;28;20539;-80
2021/12/03 00:52:41;;;;;;;5.30;1.30;;;15.20;42.90;;;;;;20658045;28;20527;-80
2021/12/03 01:02:42;;;;;;;2.47;1.10;;;15.20;43.00;;;;;;20656558;28;20545;-81
2021/12/03 01:12:43;;;;;;;2.53;1.13;;;15.10;43.00;;;;;;20641504;28;20038;-80
2021/12/03 01:22:44;;;;;;;2.65;1.38;;;15.10;43.10;;;;;;20656570;28;20285;-79
2021/12/03 01:32:45;;;;;;;1.58;0.95;;;15.10;43.20;;;;;;20656440;28;20105;-80
2021/12/03 01:42:46;;;;;;;1.98;0.95;;;15.00;43.30;;;;;;20655232;28;20370;-80
2021/12/03 01:52:46;;;;;;;3.03;1.07;;;15.00;43.40;;;;;;20654273;28;20092;-79
2021/12/03 02:02:47;;;;;;;2.42;1.15;;;15.00;43.40;;;;;;20652767;28;20292;-80
2021/12/03 02:12:48;;;;;;;4.05;1.17;;;14.90;43.40;;;;;;20686794;28;20039;-79
2021/12/03 02:22:49;;;;;;;1.95;1.25;;;14.80;44.10;;;;;;20715764;28;20492;-80
2021/12/03 02:32:50;;;;;;;1.55;1.00;;;14.80;43.50;;;;;;20715422;28;20073;-80
2021/12/03 02:42:51;;;;;;;1.80;0.90;;;14.80;43.50;;;;;;20701118;28;20416;-80
2021/12/03 02:52:52;;;;;;;4.00;1.17;;;14.70;43.50;;;;;;20714748;28;20044;-80
2021/12/03 03:02:53;;;;;;;1.73;1.02;;;14.70;43.60;;;;;;20698238;28;20476;-81
2021/12/03 03:12:54;;;;;;;2.90;1.55;;;14.70;43.70;;;;;;20728608;28;20045;-80
2021/12/03 03:22:54;;;;;;;2.10;1.25;;;14.60;43.70;;;;;;20698131;28;20038;-80
2021/12/03 03:32:55;;;;;;;2.95;1.45;;;14.40;44.00;;;;;;20712598;28;20041;-80
2021/12/03 03:42:59;;;;;;;3.70;1.55;;;14.10;44.40;;;;;;20728475;28;20026;-80
2021/12/03 03:53:00;;;;;;;4.93;1.92;;;13.80;44.90;;;;;;20711407;28;20129;-81
2021/12/03 04:03:01;;;;;;;3.90;2.03;;;13.50;45.50;;;;;;20679866;28;20499;-81
2021/12/03 04:13:01;;;;;;;3.55;1.83;;;13.20;46.20;;;;;;20695124;28;20521;-81
2021/12/03 04:23:02;;;;;;;5.15;2.58;;;12.80;46.90;;;;;;20696540;28;20120;-80
2021/12/03 04:33:04;;;;;;;3.65;1.52;;;12.70;47.40;;;;;;20641474;28;20140;-80
2021/12/03 04:43:04;;;;;;;3.60;2.00;;;12.60;47.60;;;;;;20642352;28;20027;-81
2021/12/03 04:53:05;;;;;;;3.05;1.83;;;12.50;47.80;;;;;;20626704;28;20048;-80
2021/12/03 05:03:07;;;;;;;2.65;1.30;;;12.50;48.00;;;;;;20640910;28;20121;-81
2021/12/03 05:13:10;;;;;;;3.40;2.00;;;12.50;48.10;;;;;;20657193;28;20497;-80
2021/12/03 05:23:10;;;;;;;4.90;2.28;;;13.70;46.30;;;;;;20640763;28;20053;-80
2021/12/03 05:33:11;;;;;;;3.67;2.07;;;15.40;43.30;;;;;;20638997;28;20030;-79
2021/12/03 05:43:13;;;;;;;3.03;1.80;;;16.50;41.00;;;;;;20621952;28;20044;-81
2021/12/03 05:53:13;;;;;;;6.20;2.13;;;17.60;38.90;;;;;;20712587;28;20048;-75
2021/12/03 06:03:14;;;;;;;5.45;2.67;;;18.70;36.90;;;;;;20713965;28;20030;-73
2021/12/03 06:13:15;;;;;;;4.37;2.57;;;19.30;35.60;;;;;;20761285;28;20387;-78
2021/12/03 06:23:17;;;;;;;2.97;2.10;;;19.60;34.90;;;;;;20794285;28;20280;-75
2021/12/03 06:33:19;;;;;;;5.75;2.08;;;19.70;34.50;;;;;;20728312;28;20038;-78
2021/12/03 06:43:20;;;;;;;5.55;2.15;;;20.00;34.00;;;;;;20735402;28;20037;-76
2021/12/03 06:53:24;;;;;;;5.07;2.80;;;20.10;33.70;;;;;;20694014;28;20381;-80
2021/12/03 07:03:25;;;;;;;4.15;1.92;;;19.10;34.70;;;;;;20677215;28;20033;-80
2021/12/03 07:13:30;;;;;;;4.90;2.10;;;18.00;36.20;;;;;;20704866;28;20057;-80
2021/12/03 07:23:30;;;;;;;3.92;1.77;;;17.00;37.80;;;;;;20708109;28;20041;-79
2021/12/03 07:33:32;;;;;;;2.38;1.92;;;16.30;39.00;;;;;;20707903;28;20049;-78
2021/12/03 07:43:32;;;;;;;5.00;2.50;;;15.90;39.90;;;;;;20707506;28;20546;-78
2021/12/03 07:53:33;;;;;;;3.92;2.00;;;15.60;40.60;;;;;;20733319;28;20037;-79
2021/12/03 08:03:33;;;;;;;5.10;2.40;;;15.40;41.00;;;;;;20707014;28;20481;-78
2021/12/03 08:13:34;;;;;;;3.92;1.83;;;15.30;41.40;;;;;;20698926;28;20308;-79
2021/12/03 08:23:35;;;;;;;4.20;1.70;;;15.30;41.60;;;;;;20721416;28;20030;-79
2021/12/03 08:33:35;;;;;;;4.15;2.13;;;15.30;41.70;;;;;;20736993;28;20065;-78
2021/12/03 08:43:36;;;;;;;4.93;2.05;;;15.30;41.60;;;;;;20719911;28;20062;-79
2021/12/03 09:03:56;;;;;;;3.97;2.17;;;15.30;41.90;;;;;;20791771;28;20091;-78
2021/12/03 09:13:59;;;;;;;4.72;1.77;;;15.20;42.20;;;;;;20784482;28;20409;-75
2021/12/03 09:34:08;;;;;;;3.67;1.63;;;15.00;42.70;;;;;;20725149;28;20399;-75
2021/12/03 09:44:08;;;;;;;3.25;1.35;;;14.90;42.90;;;;;;20773106;28;20033;-75
2021/12/03 10:14:33;;;;;;;4.13;1.88;;;14.80;43.40;;;;;;20711624;28;20052;-75
2021/12/03 10:25:09;;;;;;;3.78;1.85;;;14.70;43.50;;;;;;20711512;28;20038;-75
2021/12/03 10:35:33;;;;;;;4.20;2.30;;;14.60;43.60;;;;;;20700656;28;20025;-75
2021/12/03 10:45:46;;;;;;;2.70;1.73;;;14.60;43.80;;;;;;20699093;28;20038;-76
2021/12/03 11:47:31;;;;;;;2.78;1.50;;;18.00;38.50;;;;;;20701398;28;20474;-72
2021/12/03 11:58:30;;;;;;;3.15;1.55;;;19.00;36.70;;;;;;20743241;28;20092;-72
2021/12/03 12:20:06;;;;;;;3.78;2.45;;;19.90;34.90;;;;;;20589021;28;20511;-76
2021/12/03 14:03:58;;;;;;;1.85;1.17;;;16.50;40.60;;;;;;20710670;28;20037;-75
2021/12/03 14:45:14;;;;;;;1.80;1.00;;;16.30;41.10;;;;;;20652024;28;20046;-76
2021/12/03 14:55:27;;;;;;;1.75;1.13;;;16.30;41.20;;;;;;20624941;28;20068;-76
2021/12/03 15:26:56;;;;;;;2.50;1.27;;;16.20;41.20;;;;;;20580125;28;20077;-75
2021/12/03 15:37:17;;;;;;;2.53;1.20;;;16.20;41.40;;;;;;20625894;28;20119;-75
2021/12/03 16:08:16;;;;;;;2.90;1.35;;;19.00;37.50;;;;;;20723497;28;20038;-75
2021/12/03 16:59:35;;;;;;;3.05;0.95;;;18.10;37.90;;;;;;20654727;28;20046;-75
2021/12/03 17:30:46;;;;;;;2.17;0.90;;;16.20;40.80;;;;;;20669602;28;20488;-78
2021/12/03 17:51:25;;;;;;;1.65;0.90;;;15.90;41.90;;;;;;20704123;28;20080;-79
2021/12/03 19:03:39;;;;;;;3.03;1.02;;;15.80;42.50;;;;;;20733840;28;20041;-77
2021/12/03 19:13:41;;;;;;;4.13;1.15;;;15.80;42.50;;;;;;20712319;28;20104;-79
2021/12/03 19:23:46;;;;;;;2.60;1.30;;;15.70;42.60;;;;;;20725567;28;20033;-79
2021/12/03 19:33:47;;;;;;;2.25;1.05;;;15.70;42.70;;;;;;20680136;28;20049;-79
2021/12/03 19:43:54;;;;;;;1.67;1.05;;;15.70;42.80;;;;;;20708606;28;20041;-79
2021/12/03 19:53:59;;;;;;;1.70;1.60;;;15.70;42.90;;;;;;20707137;28;20033;-82
2021/12/03 20:04:00;;;;;;;3.17;1.33;;;15.70;43.00;;;;;;20724707;28;20496;-80
2021/12/03 20:14:01;;;;;;;1.80;1.17;;;15.60;43.00;;;;;;20659340;28;20054;-79
2021/12/03 20:24:18;;;;;;;2.05;1.05;;;15.60;43.10;;;;;;20654485;28;20401;-81
2021/12/03 20:34:29;;;;;;;2.13;0.98;;;15.60;43.20;;;;;;20720315;28;20128;-79
2021/12/03 21:15:43;;;;;;;2.17;1.10;;;15.50;43.50;;;;;;20731008;28;20117;-80
2021/12/03 21:25:52;;;;;;;1.75;1.20;;;15.40;43.40;;;;;;20719909;28;20396;-81
2021/12/03 21:46:19;;;;;;;2.72;1.20;;;15.40;43.60;;;;;;20755540;28;20380;-82
2021/12/03 21:56:23;;;;;;;3.20;1.35;;;15.30;43.60;;;;;;20755257;28;20045;-81
2021/12/03 22:06:28;;;;;;;3.42;0.93;;;15.30;43.70;;;;;;20721293;28;20029;-81
2021/12/03 22:16:30;;;;;;;1.48;1.05;;;15.20;43.70;;;;;;20737183;28;20042;-82
2021/12/03 22:26:31;;;;;;;2.47;1.00;;;15.20;43.80;;;;;;20736072;28;20041;-82
2021/12/03 22:36:33;;;;;;;4.03;1.17;;;15.20;43.90;;;;;;20751344;28;20045;-81
2021/12/03 22:47:11;;;;;;;1.80;0.90;;;15.10;44.00;;;;;;20718316;28;20041;-82
2021/12/03 22:57:21;;;;;;;2.00;0.85;;;15.10;44.00;;;;;;20749991;28;20045;-82
2021/12/03 23:07:23;;;;;;;2.13;0.90;;;15.10;44.10;;;;;;20733557;28;20473;-81
2021/12/03 23:17:26;;;;;;;1.50;0.82;;;15.00;44.10;;;;;;20717921;28;20041;-82
2021/12/03 23:27:28;;;;;;;2.15;1.45;;;15.00;44.30;;;;;;20716451;28;20034;-81
2021/12/03 23:37:29;;;;;;;5.47;2.00;;;15.00;44.30;;;;;;20748101;28;20056;-84
2021/12/03 23:47:32;;;;;;;3.92;1.40;;;14.90;44.40;;;;;;20771130;28;20111;-82
2021/12/03 23:57:37;;;;;;;2.47;1.50;;;14.90;44.50;;;;;;20725629;28;20469;-82
